Skip Navigation Links Skip Navigation Links

Current Weather

White County, Monticello, Ind.

For information only: do not use for flight planning or navigation.
Latest weather
Observation time Friday, December 3, 2021 5:15 AM EST
Local time Friday, December 3, 2021 5:39 AM EST
Flight conditions Visual Meteorological Conditions
Winds
Wind speed calm
Visibility 10 mi.
Sky condition
Ceiling unlimited
Sky clear
Temperature 33°F
Dewpoint 31°F
Altimeter 30.05 in.Hg
Derived measurements
Relative humidity 93%
Wind chill 33°F
Density altitude -1141 ft.
Remarks
Fully automated report.
Automated weather observing station with precipitation discriminator.
METAR KMCX 031015Z AUTO 00000KT 10SM CLR 01/00 A3005 RMK AO2 T00061004

Settings

Location code

InnerDrive.Weather 4.0.6770.0 Release CLR 4.0.30319.42000
Copyright ©2018 Inner Drive Technology. All rights reserved. Portions Copyright ©1986-2018 David Braverman.

Find weather

Site navigation


Skip Navigation Links

Place info

Page info

PayPal - The safer, easier way to pay online!

Return home.

Copyright ©2021 Inner Drive Technology. Purveyors of fine, hand-crafted computer software. Page printed 2021-12-03T10:39:17 UTC.